Waswanipi, Canada
Current Conditions -  °F | °C
As of 1:00 AM on Tuesday 21 Oct 2014 (Local Time) from CYNM Reporting Station
Overcast Overcast  
Wind Chill: -3°   Ceiling: 3100
Heat Index:   Visibility: 9mi
Dew Point: -3°   Wind: 5mph
Humidity: 80%   Direction: 360°N
Pressure: 30.04"   Gusts: NA
Location:  49.65°N, 76.48°W
Report Text: CYNM 210500Z AUTO 36004KT 9SM OVC031 M00/M03 A3004 RMK ICG MISG SLP188
Loading
Personal Weather Stations






























Interactive Weather Map
Tropical Storm Tracking
New forecast layout! Learn more

10-Day Weather Forecast

Advertisements
Track Severe Weather on mobile